Time;durP1;ratioP1;P1;durP2;ratioP2;P2;SDS_P1;SDS_P2;PMS_P1;PMS_P2;Temp;Humidity;BMP_temperature;BMP_pressure;BME280_temperature;BME280_humidity;BME280_pressure;Samples;Min_cycle;Max_cycle;Signal;HPM_P1;HPM_P2
2023/08/15 00:00:15;;;;;;;8.45;5.15;;;;;;;20.92;79.21;98710.13;5028984;28;20029;-84
2023/08/15 00:02:41;;;;;;;6.93;5.22;;;;;;;20.81;79.58;98702.66;5014282;28;20037;-84
2023/08/15 00:05:06;;;;;;;8.52;4.35;;;;;;;20.85;79.67;98707.13;5030280;28;20034;-83
2023/08/15 00:07:32;;;;;;;9.32;5.30;;;;;;;20.84;79.51;98702.78;5033639;28;20083;-84
2023/08/15 00:09:57;;;;;;;7.70;5.35;;;;;;;20.78;79.74;98706.78;5011897;28;20084;-83
2023/08/15 00:12:23;;;;;;;11.57;5.57;;;;;;;20.75;79.85;98706.63;5026458;28;20071;-84
2023/08/15 00:14:48;;;;;;;7.30;4.75;;;;;;;20.64;79.76;98686.34;5024063;28;20033;-83
2023/08/15 00:17:14;;;;;;;8.75;5.13;;;;;;;20.57;80.46;98692.25;5004845;28;20042;-83
2023/08/15 00:19:39;;;;;;;5.22;4.70;;;;;;;20.65;80.41;98696.88;5003250;28;20064;-84
2023/08/15 00:22:04;;;;;;;6.07;4.93;;;;;;;20.64;80.29;98694.50;5015572;28;20386;-85
2023/08/15 00:24:30;;;;;;;7.40;4.78;;;;;;;20.58;79.99;98671.31;4998451;28;20116;-84
2023/08/15 00:26:55;;;;;;;8.27;4.50;;;;;;;20.72;80.03;98697.22;5030603;28;20229;-84
2023/08/15 00:29:21;;;;;;;6.47;4.57;;;;;;;20.43;80.39;98666.38;5011490;28;20211;-84
2023/08/15 00:31:46;;;;;;;7.55;5.40;;;;;;;20.47;81.04;98691.72;5028528;28;20045;-84
2023/08/15 00:34:11;;;;;;;7.88;4.45;;;;;;;20.50;80.76;98696.53;4996971;28;20030;-84
2023/08/15 00:36:37;;;;;;;8.32;4.43;;;;;;;20.32;80.85;98654.22;5013073;28;20025;-84
2023/08/15 00:39:02;;;;;;;5.85;5.18;;;;;;;20.60;80.28;98675.31;5017013;28;20057;-84
2023/08/15 00:41:29;;;;;;;10.55;5.00;;;;;;;20.61;80.29;98679.66;5030884;28;20026;-85
2023/08/15 00:43:55;;;;;;;12.10;5.93;;;;;;;20.68;80.17;98679.19;5032375;28;20025;-84
2023/08/15 00:46:22;;;;;;;6.68;5.05;;;;;;;20.53;80.66;98674.22;5028217;28;20053;-84
2023/08/15 00:48:47;;;;;;;8.38;5.68;;;;;;;20.44;80.80;98651.72;5027759;28;20509;-84
2023/08/15 00:51:13;;;;;;;7.88;4.90;;;;;;;20.53;80.34;98663.38;5026847;28;20041;-83
2023/08/15 00:53:38;;;;;;;10.00;5.03;;;;;;;20.51;80.53;98654.75;5020478;28;20049;-84
2023/08/15 00:56:04;;;;;;;6.32;5.30;;;;;;;20.51;80.34;98652.03;5030367;28;20029;-84
2023/08/15 00:58:30;;;;;;;10.40;5.15;;;;;;;20.63;80.25;98666.56;5030839;28;20032;-84
2023/08/15 01:00:56;;;;;;;9.40;5.45;;;;;;;20.60;80.22;98671.81;5016811;28;20029;-85
2023/08/15 01:03:22;;;;;;;6.88;5.13;;;;;;;20.51;80.33;98660.19;5029174;28;20037;-84
2023/08/15 01:05:48;;;;;;;9.50;5.15;;;;;;;20.40;80.79;98667.78;5032349;28;20052;-84
2023/08/15 01:08:13;;;;;;;9.13;4.85;;;;;;;20.31;81.39;98661.59;5027476;28;20045;-84
2023/08/15 01:10:39;;;;;;;6.18;5.00;;;;;;;20.42;80.65;98670.22;5014358;28;20021;-84
2023/08/15 01:13:36;;;;;;;5.55;4.82;;;;;;;20.50;80.58;98669.41;5030212;28;20484;-84
2023/08/15 01:16:07;;;;;;;9.45;4.75;;;;;;;20.27;80.89;98640.84;5023428;28;20448;-84
2023/08/15 01:18:41;;;;;;;13.65;5.68;;;;;;;20.41;80.71;98666.69;5031697;28;20466;-84
2023/08/15 01:21:07;;;;;;;9.20;5.68;;;;;;;20.31;81.01;98661.59;5014604;28;20517;-84
2023/08/15 01:23:37;;;;;;;9.27;5.00;;;;;;;20.28;81.27;98655.97;5036162;28;20033;-85
2023/08/15 01:26:02;;;;;;;9.20;5.28;;;;;;;20.37;80.54;98660.31;5029708;28;20059;-84
2023/08/15 01:28:28;;;;;;;8.73;4.55;;;;;;;20.30;81.02;98659.97;5015060;28;20041;-84
2023/08/15 01:31:05;;;;;;;6.00;4.70;;;;;;;20.23;80.76;98648.00;5033817;28;20427;-85
2023/08/15 01:34:04;;;;;;;8.05;4.40;;;;;;;20.30;80.56;98659.97;5047228;28;20021;-84
2023/08/15 01:36:33;;;;;;;6.95;4.53;;;;;;;20.23;80.87;98654.22;5028477;28;20056;-84
2023/08/15 01:39:05;;;;;;;6.38;4.85;;;;;;;20.19;80.52;98639.66;5013094;28;20029;-84
2023/08/15 01:41:38;;;;;;;8.50;4.78;;;;;;;20.16;81.10;98643.00;5025721;28;20034;-84
2023/08/15 01:44:06;;;;;;;5.13;4.63;;;;;;;20.08;81.16;98641.06;5029527;28;20394;-84
2023/08/15 01:46:32;;;;;;;6.30;4.60;;;;;;;20.18;80.80;98640.81;5031115;28;20029;-84
2023/08/15 01:48:59;;;;;;;28.42;5.72;;;;;;;20.18;81.13;98638.09;5031981;28;20032;-84
2023/08/15 01:51:25;;;;;;;5.68;4.03;;;;;;;19.96;81.25;98627.34;5016560;28;20436;-84
2023/08/15 01:53:50;;;;;;;4.50;3.58;;;;;;;19.95;82.22;98650.13;5017469;28;20032;-84
2023/08/15 01:56:15;;;;;;;6.57;4.30;;;;;;;19.96;81.36;98630.84;5045788;28;20034;-84
2023/08/15 01:58:41;;;;;;;7.93;4.70;;;;;;;20.11;81.10;98643.16;5030639;28;20397;-84
2023/08/15 02:01:06;;;;;;;7.15;4.60;;;;;;;20.11;81.22;98643.97;5029285;28;20025;-84
2023/08/15 02:03:32;;;;;;;6.00;4.38;;;;;;;20.10;81.14;98644.28;4998758;28;20036;-84
2023/08/15 02:05:57;;;;;;;6.75;4.93;;;;;;;20.03;80.95;98628.47;5014213;28;20477;-84
2023/08/15 02:08:23;;;;;;;4.47;4.03;;;;;;;19.98;81.73;98639.47;5036113;28;20108;-84
2023/08/15 02:10:49;;;;;;;4.90;4.10;;;;;;;19.95;81.68;98633.88;5046987;28;20045;-84
2023/08/15 02:13:18;;;;;;;7.57;4.80;;;;;;;19.87;81.51;98626.53;5017613;28;20512;-84
2023/08/15 02:15:44;;;;;;;5.38;4.82;;;;;;;19.43;83.60;98636.38;5028701;28;20079;-84
2023/08/15 02:18:10;;;;;;;5.18;4.68;;;;;;;19.48;83.27;98646.28;5028358;28;20069;-83
2023/08/15 02:20:36;;;;;;;7.22;3.88;;;;;;;19.66;82.35;98639.03;5030054;28;20029;-84
2023/08/15 02:23:01;;;;;;;8.10;5.38;;;;;;;20.06;81.16;98651.44;5018630;28;20098;-84
2023/08/15 02:25:26;;;;;;;8.50;4.95;;;;;;;20.14;80.77;98659.59;5032212;28;20504;-84
2023/08/15 02:27:52;;;;;;;5.20;4.40;;;;;;;19.97;80.84;98658.72;5015056;28;20486;-85
2023/08/15 02:30:17;;;;;;;7.18;4.47;;;;;;;19.63;81.99;98645.06;5029705;28;20037;-84
2023/08/15 02:32:43;;;;;;;6.05;4.13;;;;;;;19.91;81.11;98641.03;5028326;28;20413;-84
2023/08/15 02:35:09;;;;;;;12.98;4.38;;;;;;;19.78;80.86;98620.28;5030673;28;20029;-84
2023/08/15 02:37:34;;;;;;;9.48;4.07;;;;;;;20.06;80.95;98654.94;5030432;28;20029;-84
2023/08/15 02:40:00;;;;;;;6.03;4.38;;;;;;;19.55;82.96;98648.53;5028821;28;20084;-84
2023/08/15 02:42:25;;;;;;;4.85;3.85;;;;;;;19.36;83.86;98646.84;4999355;28;20037;-84
2023/08/15 02:44:50;;;;;;;7.32;4.80;;;;;;;19.43;82.73;98641.00;5014381;28;20616;-84
2023/08/15 02:47:16;;;;;;;7.35;4.88;;;;;;;19.03;84.63;98641.97;4991237;28;20552;-84
2023/08/15 02:49:41;;;;;;;8.40;5.22;;;;;;;19.22;84.06;98651.50;5011984;28;20040;-83
2023/08/15 02:52:07;;;;;;;11.50;4.63;;;;;;;19.41;82.98;98654.84;5032615;28;20037;-84
2023/08/15 02:54:32;;;;;;;7.63;4.15;;;;;;;19.69;81.86;98641.91;5031059;28;20025;-84
2023/08/15 02:56:57;;;;;;;5.80;4.13;;;;;;;19.60;81.38;98638.38;5014710;28;20052;-84
2023/08/15 02:59:23;;;;;;;5.85;4.70;;;;;;;19.67;82.02;98649.56;5010529;28;20038;-84
2023/08/15 03:01:48;;;;;;;7.75;4.65;;;;;;;19.70;81.81;98651.63;5047828;28;20027;-84
2023/08/15 03:04:13;;;;;;;6.28;4.38;;;;;;;19.59;81.60;98639.50;5033548;28;20037;-84
2023/08/15 03:06:39;;;;;;;9.85;4.88;;;;;;;19.49;81.58;98628.09;5010613;28;20041;-84
2023/08/15 03:09:04;;;;;;;8.35;4.70;;;;;;;19.75;81.20;98642.56;5025896;28;20029;-84
2023/08/15 03:11:30;;;;;;;7.13;4.15;;;;;;;19.61;81.34;98634.56;5026998;28;20033;-84
2023/08/15 03:13:55;;;;;;;6.15;4.05;;;;;;;19.76;80.98;98641.47;5011528;28;20113;-83
2023/08/15 03:16:21;;;;;;;8.00;4.32;;;;;;;19.80;80.82;98642.44;5024240;28;20033;-84
2023/08/15 03:18:47;;;;;;;9.93;5.10;;;;;;;19.81;80.67;98650.22;5031572;28;20037;-84
2023/08/15 03:21:12;;;;;;;4.63;4.07;;;;;;;19.77;80.84;98640.34;5028061;28;20064;-83
2023/08/15 03:23:37;;;;;;;9.02;4.85;;;;;;;19.66;81.17;98653.34;5028050;28;20152;-83
2023/08/15 03:26:04;;;;;;;6.07;4.40;;;;;;;19.65;80.91;98649.06;5012629;28;20517;-83
2023/08/15 03:28:30;;;;;;;10.45;4.90;;;;;;;19.60;81.07;98635.66;5028065;28;20052;-83
2023/08/15 03:30:56;;;;;;;6.68;4.55;;;;;;;19.59;81.21;98644.91;5031761;28;20021;-84
2023/08/15 03:33:23;;;;;;;9.23;4.90;;;;;;;19.63;81.45;98639.66;5029704;28;20079;-83
2023/08/15 03:35:51;;;;;;;5.60;4.53;;;;;;;19.55;81.39;98641.19;5027094;28;20057;-83
2023/08/15 03:38:18;;;;;;;5.82;4.50;;;;;;;19.61;81.53;98641.88;5043830;28;20036;-83
2023/08/15 03:40:44;;;;;;;4.10;3.72;;;;;;;19.61;81.50;98639.97;5032683;28;20034;-84
2023/08/15 03:43:10;;;;;;;5.53;4.70;;;;;;;19.75;80.78;98637.94;5013035;28;20029;-84
2023/08/15 03:45:36;;;;;;;6.22;4.90;;;;;;;19.28;81.60;98633.25;5028069;28;20022;-83
2023/08/15 03:48:02;;;;;;;4.97;4.47;;;;;;;19.55;81.30;98632.31;5027859;28;20034;-84
2023/08/15 03:50:31;;;;;;;7.43;4.93;;;;;;;19.41;81.47;98633.19;5044730;28;20049;-84
2023/08/15 03:52:57;;;;;;;8.18;4.63;;;;;;;19.39;81.33;98624.59;5027156;28;20477;-84
2023/08/15 03:55:22;;;;;;;8.82;4.30;;;;;;;19.39;81.56;98624.59;5042561;28;20032;-84
2023/08/15 03:57:47;;;;;;;5.95;4.75;;;;;;;19.49;81.40;98639.75;5026777;28;20571;-84
2023/08/15 04:00:13;;;;;;;4.82;4.07;;;;;;;19.48;81.35;98645.47;5015000;28;20628;-84
2023/08/15 04:02:38;;;;;;;5.05;4.10;;;;;;;19.36;81.61;98640.63;5030623;28;20385;-84
2023/08/15 04:05:04;;;;;;;8.93;4.75;;;;;;;19.36;82.21;98649.56;5030479;28;20106;-84
2023/08/15 04:07:29;;;;;;;6.78;4.88;;;;;;;19.44;82.17;98654.22;5012720;28;20052;-84
2023/08/15 04:09:55;;;;;;;8.23;5.40;;;;;;;19.42;81.84;98655.63;5027037;28;20037;-83
2023/08/15 04:12:20;;;;;;;8.10;5.93;;;;;;;18.99;83.56;98641.81;5025012;28;20034;-84
2023/08/15 04:14:45;;;;;;;10.25;6.40;;;;;;;18.61;86.80;98649.47;5011521;28;20029;-84
2023/08/15 04:17:11;;;;;;;10.70;6.25;;;;;;;18.56;86.18;98636.09;5013940;28;20111;-84
2023/08/15 04:19:36;;;;;;;6.35;5.00;;;;;;;18.45;88.40;98645.53;5027908;28;20425;-83
2023/08/15 04:22:02;;;;;;;7.50;5.93;;;;;;;18.89;84.46;98631.25;5028014;28;20057;-83
2023/08/15 04:24:28;;;;;;;9.07;4.90;;;;;;;19.09;83.53;98630.72;5011800;28;20104;-85
2023/08/15 04:26:53;;;;;;;8.40;4.35;;;;;;;19.26;82.60;98620.00;5031530;28;20564;-84
2023/08/15 04:29:19;;;;;;;5.03;4.18;;;;;;;19.45;82.30;98638.78;5031982;28;20108;-84
2023/08/15 04:31:44;;;;;;;4.50;4.05;;;;;;;19.46;82.88;98655.81;5045675;28;20107;-84
2023/08/15 04:34:09;;;;;;;6.90;4.78;;;;;;;19.61;82.04;98650.81;5031620;28;20386;-84
2023/08/15 04:36:35;;;;;;;8.30;5.35;;;;;;;19.58;82.01;98647.91;5016953;28;20033;-83
2023/08/15 04:39:01;;;;;;;12.73;5.22;;;;;;;19.57;82.54;98651.75;5010125;28;20029;-83
2023/08/15 04:41:26;;;;;;;7.05;4.63;;;;;;;19.66;82.43;98672.31;5027775;28;20076;-84
2023/08/15 04:43:51;;;;;;;9.32;4.72;;;;;;;19.78;82.24;98672.53;5031143;28;20135;-83
2023/08/15 04:46:17;;;;;;;6.55;4.47;;;;;;;19.74;82.52;98679.69;5011665;28;20037;-84
2023/08/15 04:48:42;;;;;;;8.60;4.90;;;;;;;19.54;85.07;98684.84;5024501;28;20179;-84
2023/08/15 04:51:07;;;;;;;7.45;4.55;;;;;;;19.72;83.10;98673.78;5024969;28;20492;-84
2023/08/15 04:53:33;;;;;;;7.32;5.28;;;;;;;19.48;87.26;98695.00;5014616;28;20029;-83
2023/08/15 04:55:58;;;;;;;7.45;5.03;;;;;;;19.41;86.65;98702.78;5029457;28;20040;-83
2023/08/15 04:58:23;;;;;;;6.80;4.88;;;;;;;19.54;85.30;98714.63;5030144;28;20032;-83
2023/08/15 05:00:49;;;;;;;9.63;4.95;;;;;;;19.48;86.82;98691.50;5011408;28;20025;-84
2023/08/15 05:03:14;;;;;;;5.05;4.40;;;;;;;19.54;85.07;98685.66;5025125;28;20508;-83
2023/08/15 05:05:39;;;;;;;6.97;4.60;;;;;;;19.78;83.41;98713.16;5028779;28;20029;-83
2023/08/15 05:08:06;;;;;;;8.48;5.38;;;;;;;19.53;88.14;98704.91;5029466;28;22058;-83
2023/08/15 05:10:32;;;;;;;8.55;5.85;;;;;;;19.39;90.36;98703.09;5010763;28;20128;-83
2023/08/15 05:12:59;;;;;;;7.30;5.97;;;;;;;19.37;92.22;98710.69;5017819;28;20025;-83
2023/08/15 05:15:25;;;;;;;7.78;5.53;;;;;;;19.30;93.15;98704.09;5029259;28;20531;-83
2023/08/15 05:17:50;;;;;;;7.90;4.45;;;;;;;19.48;87.63;98713.16;5030860;28;20067;-84
2023/08/15 05:20:16;;;;;;;5.47;4.38;;;;;;;19.72;84.81;98724.44;5039897;28;20029;-84
2023/08/15 05:22:41;;;;;;;7.05;4.93;;;;;;;19.94;84.53;98735.25;5035743;28;20504;-83
2023/08/15 05:25:07;;;;;;;5.63;4.53;;;;;;;19.85;84.92;98728.97;5013409;28;20037;-84
2023/08/15 05:27:32;;;;;;;6.97;4.88;;;;;;;19.80;87.02;98718.28;5024831;28;20021;-83
2023/08/15 05:29:58;;;;;;;5.80;4.72;;;;;;;19.97;85.83;98737.31;5028508;28;20045;-83
2023/08/15 05:32:24;;;;;;;6.90;4.93;;;;;;;19.95;86.26;98731.41;5026705;28;20489;-84
2023/08/15 05:34:49;;;;;;;6.03;4.38;;;;;;;20.08;83.25;98739.44;5017150;28;20092;-84
2023/08/15 05:37:15;;;;;;;10.00;4.35;;;;;;;20.23;82.09;98738.25;5014025;28;20038;-84
2023/08/15 05:39:40;;;;;;;5.63;4.13;;;;;;;20.34;81.08;98736.84;5026752;28;20033;-85
2023/08/15 05:42:06;;;;;;;7.18;3.90;;;;;;;20.46;80.61;98761.47;5008824;28;20033;-84
2023/08/15 05:44:31;;;;;;;7.20;3.45;;;;;;;20.26;81.33;98743.03;5027443;28;20393;-84
2023/08/15 05:46:57;;;;;;;5.53;4.45;;;;;;;20.34;81.83;98758.53;5022894;28;20033;-84
2023/08/15 05:49:22;;;;;;;7.00;4.20;;;;;;;20.33;81.40;98756.94;5009660;28;20037;-84
2023/08/15 05:51:47;;;;;;;6.93;3.65;;;;;;;20.56;82.25;98774.72;5025458;28;20034;-84
2023/08/15 05:54:13;;;;;;;7.82;4.30;;;;;;;20.72;82.63;98811.16;4995407;28;20091;-84
2023/08/15 05:56:40;;;;;;;6.00;5.40;;;;;;;20.24;85.74;98823.06;5007597;28;20091;-83
2023/08/15 05:59:05;;;;;;;5.10;4.60;;;;;;;19.96;86.25;98814.28;5026885;28;20032;-82
2023/08/15 06:01:31;;;;;;;6.35;4.70;;;;;;;19.83;87.04;98831.44;5026488;28;20416;-82
2023/08/15 06:03:56;;;;;;;8.93;4.60;;;;;;;19.83;86.72;98813.25;5029100;28;20087;-81
2023/08/15 06:06:22;;;;;;;5.63;4.97;;;;;;;19.68;87.16;98783.84;5027498;28;20041;-83
2023/08/15 06:08:48;;;;;;;5.90;4.80;;;;;;;19.85;86.66;98792.09;5028747;28;20037;-83
2023/08/15 06:11:15;;;;;;;7.82;5.63;;;;;;;19.83;85.83;98779.97;5028941;28;20041;-82
2023/08/15 06:13:40;;;;;;;13.30;6.30;;;;;;;19.94;85.95;98787.50;5028720;28;20112;-82
2023/08/15 06:16:05;;;;;;;10.38;5.25;;;;;;;19.63;88.78;98780.47;5025508;28;20163;-82
2023/08/15 06:18:31;;;;;;;6.45;4.88;;;;;;;19.75;88.18;98797.75;5019747;28;20033;-82
2023/08/15 06:20:56;;;;;;;8.00;5.03;;;;;;;19.53;88.74;98791.56;5026939;28;20033;-82
2023/08/15 06:23:21;;;;;;;9.93;4.43;;;;;;;19.57;89.20;98803.38;5028500;28;20536;-82
2023/08/15 06:25:47;;;;;;;7.18;5.10;;;;;;;19.30;92.84;98805.03;4990489;28;20029;-82
2023/08/15 06:28:12;;;;;;;6.38;4.95;;;;;;;19.56;88.88;98823.41;5021990;28;20401;-83
2023/08/15 06:30:41;;;;;;;5.68;4.90;;;;;;;19.20;94.47;98799.84;4995883;28;20036;-82
2023/08/15 06:33:07;;;;;;;7.53;6.07;;;;;;;18.86;97.63;98777.09;5037691;28;20060;-82
2023/08/15 06:35:32;;;;;;;9.38;6.28;;;;;;;18.84;98.73;98766.59;5023746;28;20446;-83
2023/08/15 06:37:57;;;;;;;10.15;6.60;;;;;;;18.94;99.28;98770.94;5028426;28;20116;-83
2023/08/15 06:40:23;;;;;;;11.60;7.43;;;;;;;18.87;99.84;98748.97;5041957;28;20037;-83
2023/08/15 06:42:49;;;;;;;8.02;6.15;;;;;;;19.06;99.48;98755.81;5028989;28;20108;-83
2023/08/15 06:45:16;;;;;;;8.35;6.32;;;;;;;19.12;99.08;98735.63;4997598;28;20033;-83
2023/08/15 06:47:42;;;;;;;6.32;4.70;;;;;;;19.57;88.60;98747.28;5030777;28;20477;-84
2023/08/15 06:50:11;;;;;;;6.35;4.45;;;;;;;19.78;86.36;98737.53;5029184;28;20041;-84
2023/08/15 06:52:36;;;;;;;6.10;4.75;;;;;;;20.09;85.41;98742.94;5030415;28;20030;-85
2023/08/15 06:55:03;;;;;;;5.28;4.40;;;;;;;20.41;83.64;98747.22;5029490;28;20112;-85
2023/08/15 06:57:30;;;;;;;5.85;4.47;;;;;;;20.47;82.77;98746.78;5027004;28;20037;-84
2023/08/15 06:59:56;;;;;;;5.25;4.43;;;;;;;20.33;84.20;98748.81;5032925;28;20104;-85
2023/08/15 07:02:21;;;;;;;4.75;4.35;;;;;;;20.61;82.90;98755.59;5010539;28;20128;-84
2023/08/15 07:04:48;;;;;;;6.35;5.00;;;;;;;20.53;82.97;98742.00;5031526;28;20033;-84
2023/08/15 07:07:14;;;;;;;7.30;5.30;;;;;;;20.18;89.10;98751.94;5009418;28;20036;-85
2023/08/15 07:09:39;;;;;;;5.97;5.32;;;;;;;20.32;91.87;98774.31;5011911;28;20029;-84
2023/08/15 07:12:05;;;;;;;7.03;5.60;;;;;;;20.29;89.85;98772.22;5020911;28;20029;-84
2023/08/15 07:14:34;;;;;;;6.22;4.57;;;;;;;20.26;87.24;98772.88;5034037;28;20094;-84
2023/08/15 07:17:00;;;;;;;4.30;3.90;;;;;;;20.67;84.56;98786.06;5023323;28;20025;-83
2023/08/15 07:19:25;;;;;;;7.00;4.45;;;;;;;20.63;84.17;98788.63;5026198;28;20038;-83
2023/08/15 07:21:51;;;;;;;5.88;5.28;;;;;;;20.82;84.38;98783.72;5037002;28;20064;-83
2023/08/15 07:24:19;;;;;;;9.15;5.15;;;;;;;20.83;84.02;98803.50;4994249;28;20117;-83
2023/08/15 07:26:45;;;;;;;14.35;5.68;;;;;;;20.82;84.25;98807.31;5010353;28;20106;-84
2023/08/15 07:29:13;;;;;;;18.23;6.93;;;;;;;20.99;85.82;98817.44;5023112;28;20030;-84
2023/08/15 07:31:39;;;;;;;13.85;6.07;;;;;;;20.99;86.64;98790.28;5028867;28;20048;-84
2023/08/15 07:34:04;;;;;;;13.50;5.40;;;;;;;21.18;85.95;98809.81;5023696;28;20369;-84
2023/08/15 07:36:30;;;;;;;13.63;6.13;;;;;;;20.85;88.89;98785.78;5019735;28;20030;-84
2023/08/15 07:38:56;;;;;;;10.40;5.10;;;;;;;20.97;87.26;98785.16;5028316;28;20659;-84
2023/08/15 07:41:21;;;;;;;12.30;5.10;;;;;;;21.17;87.30;98764.75;5023597;28;20037;-84
2023/08/15 07:43:46;;;;;;;6.18;5.15;;;;;;;21.17;88.57;98759.34;5011774;28;20493;-85
2023/08/15 07:46:12;;;;;;;8.10;5.65;;;;;;;21.02;91.76;98757.06;5028901;28;20374;-84
2023/08/15 07:48:38;;;;;;;7.40;4.78;;;;;;;21.01;89.42;98748.16;5026900;28;20123;-83
2023/08/15 07:51:03;;;;;;;14.00;5.72;;;;;;;21.52;85.86;98764.44;4997750;28;20552;-84
2023/08/15 07:53:30;;;;;;;11.50;5.35;;;;;;;21.19;90.68;98768.75;5027718;28;20025;-84
2023/08/15 07:55:55;;;;;;;7.25;5.28;;;;;;;21.06;92.15;98774.34;5008728;28;20624;-83
2023/08/15 07:58:20;;;;;;;8.32;4.90;;;;;;;21.39;87.93;98783.63;5025288;28;20029;-83
2023/08/15 08:00:46;;;;;;;5.22;4.63;;;;;;;21.42;88.17;98785.69;5041717;28;20037;-83
2023/08/15 08:03:12;;;;;;;5.97;4.75;;;;;;;21.58;87.03;98770.50;5007708;28;20029;-84
2023/08/15 08:05:37;;;;;;;7.75;4.82;;;;;;;21.53;87.69;98790.50;5027469;28;21840;-83
2023/08/15 08:08:03;;;;;;;9.07;4.88;;;;;;;21.52;87.58;98786.16;5027779;28;20029;-84
2023/08/15 08:10:29;;;;;;;5.18;4.35;;;;;;;21.88;86.22;98788.53;5028523;28;20052;-84
2023/08/15 08:12:54;;;;;;;6.95;4.68;;;;;;;21.57;86.74;98782.50;5029753;28;20048;-84
2023/08/15 08:15:23;;;;;;;8.93;5.40;;;;;;;21.72;89.43;98808.34;5033690;28;20077;-84
2023/08/15 08:17:51;;;;;;;4.95;4.55;;;;;;;21.88;85.91;98791.25;5026652;28;20412;-84
2023/08/15 08:20:17;;;;;;;5.50;5.00;;;;;;;21.75;89.64;98802.28;5042351;28;20546;-84
2023/08/15 08:22:43;;;;;;;6.75;4.20;;;;;;;21.77;86.28;98781.81;5033581;28;20393;-84
2023/08/15 08:25:20;;;;;;;8.75;5.05;;;;;;;21.74;86.89;98785.16;5030763;28;20034;-84
2023/08/15 08:27:46;;;;;;;4.95;4.45;;;;;;;22.31;84.04;98808.22;5027343;28;20094;-84
2023/08/15 08:30:13;;;;;;;6.60;5.20;;;;;;;22.13;87.15;98814.03;5026629;28;20038;-83
2023/08/15 08:32:38;;;;;;;5.15;4.65;;;;;;;22.28;85.01;98806.16;5027783;28;20029;-84
2023/08/15 08:35:05;;;;;;;11.82;5.43;;;;;;;22.04;88.29;98800.47;5032135;28;20508;-85
2023/08/15 08:37:33;;;;;;;4.93;4.53;;;;;;;22.25;86.69;98816.91;5031814;28;20033;-84
2023/08/15 08:39:59;;;;;;;6.57;5.25;;;;;;;22.44;84.98;98817.28;5031863;28;20048;-84
2023/08/15 08:42:24;;;;;;;6.72;5.35;;;;;;;22.69;84.11;98815.63;5010169;28;20033;-84
2023/08/15 08:44:50;;;;;;;6.28;5.35;;;;;;;22.43;87.37;98790.44;5006605;28;20052;-84
2023/08/15 08:47:19;;;;;;;5.75;5.20;;;;;;;22.80;83.95;98823.06;5010402;28;20058;-84
2023/08/15 08:49:47;;;;;;;6.55;5.50;;;;;;;22.73;84.88;98805.66;5032012;28;20029;-84
2023/08/15 08:52:13;;;;;;;7.53;4.78;;;;;;;22.91;83.16;98807.94;5015449;28;20033;-84
2023/08/15 08:54:39;;;;;;;7.55;4.25;;;;;;;23.00;82.58;98816.84;5012979;28;20022;-84
2023/08/15 08:57:07;;;;;;;5.88;4.60;;;;;;;23.01;81.81;98825.84;5033088;28;20428;-84
2023/08/15 08:59:35;;;;;;;4.68;4.28;;;;;;;22.76;82.86;98824.84;5028627;28;20041;-84
2023/08/15 09:02:00;;;;;;;5.22;4.20;;;;;;;22.93;82.80;98815.81;5007753;28;20041;-84
2023/08/15 09:04:26;;;;;;;4.38;3.97;;;;;;;23.21;79.73;98821.53;5026811;28;20294;-85
2023/08/15 09:06:52;;;;;;;5.00;4.20;;;;;;;23.26;79.44;98819.44;5018761;28;20029;-85
2023/08/15 09:09:18;;;;;;;3.92;3.53;;;;;;;23.26;78.96;98805.81;5010494;28;20037;-84
2023/08/15 09:11:46;;;;;;;3.88;3.38;;;;;;;23.25;78.41;98822.47;5024631;28;20045;-84
2023/08/15 09:14:12;;;;;;;6.13;3.55;;;;;;;23.25;79.89;98828.72;5024872;28;20022;-84
2023/08/15 09:16:48;;;;;;;4.35;3.80;;;;;;;23.41;77.94;98831.69;5029467;28;20036;-84
2023/08/15 09:19:15;;;;;;;5.30;3.72;;;;;;;23.35;77.48;98814.72;5032253;28;20409;-84
2023/08/15 09:21:40;;;;;;;4.43;4.00;;;;;;;23.35;77.24;98822.09;5027850;28;20112;-84
2023/08/15 09:24:06;;;;;;;4.20;3.67;;;;;;;23.20;76.57;98793.50;5024826;28;20125;-84
2023/08/15 09:26:33;;;;;;;4.00;3.58;;;;;;;23.27;77.28;98790.25;5010687;28;20041;-84
2023/08/15 09:28:58;;;;;;;3.88;3.50;;;;;;;23.06;78.06;98803.88;5031747;28;20525;-84
2023/08/15 09:31:24;;;;;;;24.60;4.28;;;;;;;23.10;80.06;98808.31;4994052;28;20044;-85
2023/08/15 09:33:49;;;;;;;3.92;3.38;;;;;;;23.55;76.85;98813.09;5008401;28;20037;-85
2023/08/15 09:36:15;;;;;;;3.75;3.42;;;;;;;23.62;76.36;98805.19;5031949;28;20025;-84
2023/08/15 09:38:41;;;;;;;4.05;3.50;;;;;;;23.81;75.61;98817.19;5029138;28;20048;-85
2023/08/15 09:41:11;;;;;;;3.45;3.15;;;;;;;23.79;75.07;98822.19;5030521;28;20025;-84
2023/08/15 09:43:52;;;;;;;4.20;3.45;;;;;;;23.57;75.34;98805.38;5026382;28;20025;-84
2023/08/15 09:46:19;;;;;;;3.30;3.00;;;;;;;23.92;74.97;98817.56;5037068;28;20022;-84
2023/08/15 09:48:48;;;;;;;4.22;2.92;;;;;;;23.79;76.51;98808.56;5025362;28;20037;-85
2023/08/15 09:51:16;;;;;;;4.00;3.58;;;;;;;23.89;75.47;98814.72;5025629;28;20042;-84
2023/08/15 09:53:43;;;;;;;3.53;3.22;;;;;;;24.00;74.28;98816.69;5014205;28;20032;-84
2023/08/15 09:56:08;;;;;;;3.28;3.00;;;;;;;24.12;73.62;98797.66;5029636;28;20148;-85
2023/08/15 09:58:34;;;;;;;4.15;3.85;;;;;;;24.21;73.19;98805.72;5014136;28;20508;-84
2023/08/15 10:01:02;;;;;;;3.70;3.10;;;;;;;24.07;76.25;98818.91;5023378;28;20079;-85
2023/08/15 10:03:36;;;;;;;4.05;3.65;;;;;;;24.37;72.20;98793.03;5024987;28;20076;-85
2023/08/15 10:06:03;;;;;;;3.78;3.40;;;;;;;24.26;73.05;98802.78;5029638;28;20036;-85
2023/08/15 10:08:28;;;;;;;4.47;3.17;;;;;;;24.51;71.53;98798.94;5031043;28;20044;-84
2023/08/15 10:10:58;;;;;;;3.40;3.10;;;;;;;24.42;73.62;98817.34;5013728;28;20036;-84
2023/08/15 10:13:31;;;;;;;4.35;3.75;;;;;;;24.69;71.26;98802.25;5031164;28;20036;-84
2023/08/15 10:15:58;;;;;;;3.55;3.08;;;;;;;24.78;70.77;98811.13;5012384;28;20037;-84
2023/08/15 10:18:24;;;;;;;6.95;3.38;;;;;;;24.62;71.37;98797.34;5027989;28;20116;-84
2023/08/15 10:20:51;;;;;;;3.72;3.28;;;;;;;24.97;71.64;98817.63;5030045;28;20029;-84
2023/08/15 10:23:28;;;;;;;8.77;3.40;;;;;;;25.01;71.46;98813.03;5028522;28;20715;-84
2023/08/15 10:25:54;;;;;;;4.53;3.08;;;;;;;25.13;69.44;98815.78;5027215;28;20031;-85
2023/08/15 10:28:20;;;;;;;4.90;2.83;;;;;;;25.35;68.84;98824.59;5029723;28;20452;-84
2023/08/15 10:30:47;;;;;;;3.17;2.88;;;;;;;25.56;68.58;98827.97;5030109;28;20033;-85
2023/08/15 10:33:15;;;;;;;2.83;2.63;;;;;;;25.61;68.15;98819.53;5024228;28;20037;-84
2023/08/15 10:35:49;;;;;;;4.13;2.70;;;;;;;25.69;67.48;98824.84;5027213;28;20044;-84
2023/08/15 10:38:16;;;;;;;6.13;3.53;;;;;;;25.49;69.16;98822.31;5010701;28;20041;-84
2023/08/15 10:40:43;;;;;;;2.95;2.65;;;;;;;25.90;66.71;98800.03;5026288;28;20045;-84
2023/08/15 10:43:13;;;;;;;2.75;2.47;;;;;;;26.03;66.37;98820.72;5038968;28;20044;-83
2023/08/15 10:45:46;;;;;;;2.78;2.58;;;;;;;26.02;65.58;98817.16;5027630;28;20120;-84
2023/08/15 10:48:12;;;;;;;2.80;2.60;;;;;;;26.20;65.31;98814.94;5024822;28;20021;-84
2023/08/15 10:50:46;;;;;;;2.80;2.58;;;;;;;26.31;64.41;98818.75;5028104;28;20029;-83
2023/08/15 10:53:12;;;;;;;2.88;2.65;;;;;;;26.50;66.41;98813.34;5010731;28;20044;-83
2023/08/15 10:55:39;;;;;;;3.10;2.75;;;;;;;26.33;64.30;98800.03;5022898;28;20025;-83
2023/08/15 10:58:09;;;;;;;2.53;2.33;;;;;;;26.79;63.20;98814.06;5027426;28;20510;-83
2023/08/15 11:00:36;;;;;;;2.90;2.63;;;;;;;26.91;63.11;98803.78;5009356;28;20136;-84
2023/08/15 11:03:02;;;;;;;3.38;2.80;;;;;;;27.06;62.73;98813.94;5030076;28;20136;-84
2023/08/15 11:05:27;;;;;;;3.00;2.65;;;;;;;26.77;62.79;98797.19;5030424;28;20051;-84
2023/08/15 11:07:55;;;;;;;4.68;2.35;;;;;;;26.99;61.10;98819.25;5029019;28;20481;-84
2023/08/15 11:10:22;;;;;;;3.30;2.70;;;;;;;27.09;61.31;98806.94;5004823;28;20044;-84
2023/08/15 11:12:48;;;;;;;6.85;2.80;;;;;;;27.30;60.64;98827.38;5039401;28;20037;-84
2023/08/15 11:15:17;;;;;;;3.67;2.65;;;;;;;27.35;60.82;98831.78;5030531;28;20045;-84
2023/08/15 11:17:47;;;;;;;3.30;2.70;;;;;;;27.38;60.86;98831.09;5006679;28;20087;-83
2023/08/15 11:20:13;;;;;;;4.93;2.42;;;;;;;27.23;61.31;98829.19;5028720;28;20041;-84
2023/08/15 11:22:38;;;;;;;3.50;2.72;;;;;;;27.38;60.99;98836.59;5028571;28;20183;-83
2023/08/15 11:25:08;;;;;;;6.32;2.53;;;;;;;27.60;59.96;98844.09;5010707;28;20029;-83
2023/08/15 11:27:38;;;;;;;4.00;2.88;;;;;;;27.63;60.62;98835.13;5028755;28;20029;-82